createdAt,value
2018-04-25T00:00:37.876Z,11.57
2018-04-25T00:03:04.122Z,11.83
2018-04-25T00:05:30.363Z,7.93
2018-04-25T00:07:56.598Z,10.57
2018-04-25T00:10:22.886Z,9.60
2018-04-25T00:12:49.378Z,11.07
2018-04-25T00:15:15.694Z,10.70
2018-04-25T00:17:42.005Z,12.83
2018-04-25T00:20:08.253Z,10.30
2018-04-25T00:22:34.515Z,9.53
2018-04-25T00:25:01.514Z,10.70
2018-04-25T00:27:27.732Z,9.37
2018-04-25T00:29:54.062Z,7.83
2018-04-25T00:32:20.364Z,6.47
2018-04-25T00:34:46.622Z,14.83
2018-04-25T00:37:12.832Z,7.53
2018-04-25T00:39:39.100Z,7.47
2018-04-25T00:42:05.393Z,7.90
2018-04-25T00:44:31.721Z,10.53
2018-04-25T00:46:57.904Z,11.40
2018-04-25T00:49:25.113Z,8.33
2018-04-25T00:51:51.606Z,8.97
2018-04-25T00:54:18.652Z,8.50
2018-04-25T00:56:45.632Z,9.57
2018-04-25T00:59:11.964Z,9.67
2018-04-25T01:01:38.299Z,10.80
2018-04-25T01:04:04.544Z,6.70
2018-04-25T01:06:30.833Z,8.60
2018-04-25T01:08:57.872Z,8.87
2018-04-25T01:11:24.507Z,6.67
2018-04-25T01:13:50.794Z,8.70
2018-04-25T01:16:17.045Z,8.07
2018-04-25T01:18:43.312Z,7.50
2018-04-25T01:21:09.539Z,9.23
2018-04-25T01:23:36.049Z,8.93
2018-04-25T01:26:06.140Z,10.50
2018-04-25T01:31:47.979Z,8.63
2018-04-25T01:34:17.920Z,8.43
2018-04-25T01:36:45.937Z,8.17
2018-04-25T01:39:12.204Z,8.30
2018-04-25T01:41:39.252Z,8.83
2018-04-25T01:44:22.034Z,8.30
2018-04-25T01:47:12.348Z,7.63
2018-04-25T01:49:38.580Z,6.23
2018-04-25T01:52:17.214Z,8.77
2018-04-25T01:54:56.400Z,11.40
2018-04-25T01:57:34.950Z,13.77
2018-04-25T02:00:13.546Z,11.47
2018-04-25T02:02:39.676Z,9.70
2018-04-25T02:05:05.948Z,10.00
2018-04-25T02:07:32.177Z,8.57
2018-04-25T02:09:58.384Z,7.63
2018-04-25T02:12:24.616Z,13.60
2018-04-25T02:14:50.902Z,7.77
2018-04-25T02:17:17.116Z,10.90
2018-04-25T02:19:43.352Z,8.13
2018-04-25T02:22:09.696Z,8.40
2018-04-25T02:24:36.830Z,7.93
2018-04-25T02:27:03.082Z,7.87
2018-04-25T02:29:30.079Z,11.80
2018-04-25T02:31:56.345Z,9.90
2018-04-25T02:34:22.577Z,10.97
2018-04-25T02:36:48.801Z,9.57
2018-04-25T02:39:15.200Z,10.07
2018-04-25T02:41:41.479Z,10.07
2018-04-25T02:44:08.493Z,12.87
2018-04-25T02:46:34.734Z,10.97
2018-04-25T02:49:00.943Z,11.40
2018-04-25T02:51:27.972Z,15.03
2018-04-25T02:53:54.256Z,10.20
2018-04-25T02:56:21.236Z,11.40
2018-04-25T02:58:48.265Z,11.07
2018-04-25T03:01:14.654Z,11.20
2018-04-25T03:03:40.941Z,10.03
2018-04-25T03:06:07.158Z,11.30
2018-04-25T03:08:33.372Z,10.83
2018-04-25T03:10:59.581Z,11.50
2018-04-25T03:13:26.553Z,10.83
2018-04-25T03:15:52.821Z,13.10
2018-04-25T03:18:19.089Z,11.83
2018-04-25T03:20:46.264Z,10.17
2018-04-25T03:23:12.503Z,12.33
2018-04-25T03:25:38.712Z,13.07
2018-04-25T03:28:05.023Z,12.60
2018-04-25T03:30:32.034Z,11.80
2018-04-25T03:32:58.285Z,12.43
2018-04-25T03:35:24.548Z,11.33
2018-04-25T03:37:50.828Z,14.17
2018-04-25T03:40:17.040Z,14.53
2018-04-25T03:42:44.089Z,14.30
2018-04-25T03:45:10.304Z,13.73
2018-04-25T03:47:36.632Z,12.30
2018-04-25T03:50:02.903Z,13.33
2018-04-25T03:52:29.161Z,13.07
2018-04-25T03:54:55.467Z,11.53
2018-04-25T03:57:21.800Z,13.20
2018-04-25T03:59:48.914Z,12.23
2018-04-25T04:02:15.131Z,11.30
2018-04-25T04:04:41.475Z,13.53
2018-04-25T04:07:07.741Z,11.07
2018-04-25T04:09:34.722Z,13.53
2018-04-25T04:12:00.981Z,13.27
2018-04-25T04:14:27.286Z,10.83
2018-04-25T04:16:53.506Z,12.70
2018-04-25T04:19:20.016Z,12.13
2018-04-25T04:21:47.060Z,8.77
2018-04-25T04:24:14.060Z,11.50
2018-04-25T04:26:40.293Z,11.77
2018-04-25T04:29:06.531Z,12.40
2018-04-25T04:31:32.806Z,10.57
2018-04-25T04:33:59.468Z,10.93
2018-04-25T04:36:25.679Z,8.73
2018-04-25T04:38:52.016Z,8.67
2018-04-25T04:41:18.292Z,7.97
2018-04-25T04:43:44.568Z,5.33
2018-04-25T04:46:10.781Z,6.40
2018-04-25T04:48:37.028Z,6.37
2018-04-25T04:51:03.359Z,8.80
2018-04-25T04:53:29.616Z,6.53
2018-04-25T04:55:56.597Z,7.73
2018-04-25T04:58:23.532Z,6.27
2018-04-25T05:00:50.476Z,6.53
2018-04-25T05:03:17.464Z,6.27
2018-04-25T05:05:44.448Z,4.23
2018-04-25T05:08:10.679Z,7.33
2018-04-25T05:10:36.935Z,6.60
2018-04-25T05:13:03.302Z,5.93
2018-04-25T05:15:29.526Z,5.87
2018-04-25T05:17:55.791Z,6.47
2018-04-25T05:20:22.002Z,6.13
2018-04-25T05:22:48.255Z,5.70
2018-04-25T05:25:15.246Z,7.27
2018-04-25T05:27:41.570Z,7.57
2018-04-25T05:30:07.840Z,9.57
2018-04-25T08:04:04.291Z,5.68
2018-04-25T08:06:30.652Z,4.47
2018-04-25T08:08:56.870Z,5.33
2018-04-25T08:11:23.073Z,5.23
2018-04-25T08:14:02.406Z,4.57
2018-04-25T08:16:40.889Z,4.85
2018-04-25T08:19:19.413Z,4.40
2018-04-25T08:21:45.675Z,4.23
2018-04-25T08:24:12.052Z,4.03
2018-04-25T09:15:27.234Z,5.43
2018-04-25T09:17:53.454Z,5.63
2018-04-25T09:20:19.780Z,9.73
2018-04-25T09:22:46.163Z,5.80
2018-04-25T09:25:12.552Z,6.93
2018-04-25T09:27:38.848Z,5.43
2018-04-25T09:30:05.133Z,6.70
2018-04-25T09:32:31.363Z,6.57
2018-04-25T09:34:57.663Z,4.63
2018-04-25T09:37:23.956Z,8.93
2018-04-25T09:39:50.340Z,6.97
2018-04-25T09:42:17.131Z,5.30
2018-04-25T09:44:43.387Z,4.27
2018-04-25T09:47:09.572Z,4.47
2018-04-25T09:49:36.640Z,5.67
2018-04-25T09:52:02.945Z,3.40
2018-04-25T09:54:29.937Z,4.27
2018-04-25T09:56:56.224Z,5.23
2018-04-25T09:59:22.524Z,4.17
2018-04-25T14:28:26.283Z,1.05
2018-04-25T14:28:30.669Z,6.20
2018-04-25T14:28:35.709Z,4.15
2018-04-25T14:28:39.916Z,5.57
2018-04-25T14:28:44.186Z,4.90
2018-04-25T14:28:49.160Z,4.50
2018-04-25T14:28:53.486Z,4.47
2018-04-25T14:28:58.432Z,4.40
2018-04-25T14:29:03.484Z,3.90
2018-04-25T14:29:07.770Z,3.47
2018-04-25T14:29:12.749Z,3.50
2018-04-25T14:29:17.741Z,3.50
2018-04-25T14:29:22.896Z,3.90
2018-04-25T14:29:27.082Z,3.93
2018-04-25T14:29:32.120Z,3.70
2018-04-25T14:29:36.419Z,3.50
2018-04-25T14:44:15.161Z,3.77
2018-04-25T14:46:41.545Z,4.73
2018-04-25T14:49:07.881Z,3.83
2018-04-25T14:51:34.193Z,4.47
2018-04-25T14:54:01.181Z,4.37
2018-04-25T14:56:27.462Z,4.80
2018-04-25T14:58:54.536Z,5.10
2018-04-25T15:01:20.768Z,5.37
2018-04-25T15:03:47.060Z,5.53
2018-04-25T15:06:14.100Z,5.13
2018-04-25T15:08:40.495Z,5.60
2018-04-25T15:11:06.974Z,5.80
2018-04-25T15:13:33.937Z,10.10
2018-04-25T15:16:00.964Z,6.40
2018-04-25T15:18:27.943Z,5.80
2018-04-25T15:20:54.922Z,5.23
2018-04-25T15:23:21.312Z,5.90
2018-04-25T15:25:47.609Z,5.90
2018-04-25T15:28:14.592Z,8.47
2018-04-25T15:30:40.828Z,4.77
2018-04-25T15:33:07.204Z,7.17
2018-04-25T15:35:33.422Z,5.70
2018-04-25T15:37:59.910Z,5.13
2018-04-25T15:40:28.206Z,5.53
2018-04-25T15:42:54.446Z,4.67
2018-04-25T15:45:21.721Z,4.00
2018-04-25T15:47:48.032Z,3.67
2018-04-25T15:50:15.166Z,4.67
2018-04-25T15:52:41.543Z,4.60
2018-04-25T15:55:08.551Z,3.30
2018-04-25T15:57:34.770Z,4.10
2018-04-25T16:00:01.093Z,4.03
2018-04-25T16:02:27.409Z,4.23
2018-04-25T16:04:54.672Z,4.13
2018-04-25T16:07:21.070Z,4.37
2018-04-25T16:09:48.975Z,5.63
2018-04-25T16:12:15.552Z,5.50
2018-04-25T16:14:41.789Z,5.97
2018-04-25T16:17:08.068Z,6.13
2018-04-25T16:19:34.291Z,6.80
2018-04-25T16:22:00.537Z,8.43
2018-04-25T16:24:27.024Z,6.50
2018-04-25T16:26:54.230Z,9.57
2018-04-25T16:29:20.503Z,6.20
2018-04-25T16:31:46.869Z,6.90
2018-04-25T16:34:13.093Z,6.47
2018-04-25T16:36:39.370Z,7.23
2018-04-25T16:39:05.682Z,7.10
2018-04-25T16:41:32.069Z,6.10
2018-04-25T16:43:58.496Z,6.63
2018-04-25T16:46:24.947Z,6.73
2018-04-25T16:48:51.283Z,6.97
2018-04-25T16:51:17.628Z,7.83
2018-04-25T16:53:43.915Z,7.33
2018-04-25T16:56:10.190Z,7.73
2018-04-25T16:58:36.443Z,6.30
2018-04-25T17:01:04.048Z,7.97
2018-04-25T17:03:31.431Z,7.67
2018-04-25T17:05:57.742Z,7.00
2018-04-25T17:08:24.109Z,8.07
2018-04-25T17:10:50.491Z,7.63
2018-04-25T17:13:16.751Z,8.20
2018-04-25T17:15:43.024Z,7.67
2018-04-25T17:18:09.346Z,7.23
2018-04-25T17:20:35.720Z,7.07
2018-04-25T17:23:03.788Z,6.57
2018-04-25T17:25:30.977Z,8.63
2018-04-25T17:27:57.301Z,7.57
2018-04-25T17:30:23.603Z,6.57
2018-04-25T17:32:49.904Z,7.93
2018-04-25T17:35:16.169Z,7.83
2018-04-25T17:37:43.766Z,7.50
2018-04-25T17:40:10.899Z,6.83
2018-04-25T17:42:38.421Z,6.80
2018-04-25T17:45:04.915Z,6.30
2018-04-25T17:47:32.115Z,6.33
2018-04-25T17:49:58.394Z,6.97
2018-04-25T17:52:25.365Z,6.20
2018-04-25T17:54:51.704Z,7.47
2018-04-25T17:57:17.951Z,6.30
2018-04-25T17:59:44.276Z,7.77
2018-04-25T18:02:10.700Z,7.67
2018-04-25T18:04:38.254Z,9.37
2018-04-25T18:07:04.715Z,9.30
2018-04-25T18:09:31.011Z,6.53
2018-04-25T18:11:57.268Z,8.90
2018-04-25T18:14:23.556Z,5.90
2018-04-25T18:16:49.963Z,5.73
2018-04-25T18:19:16.206Z,6.83
2018-04-25T18:21:43.352Z,5.33
2018-04-25T18:24:10.322Z,7.17
2018-04-25T18:26:36.715Z,6.07
2018-04-25T18:29:04.763Z,7.90
2018-04-25T18:31:31.036Z,6.30
2018-04-25T18:33:58.045Z,8.50
2018-04-25T18:36:24.463Z,8.43
2018-04-25T18:38:50.900Z,11.47
2018-04-25T18:41:17.233Z,6.30
2018-04-25T18:43:43.577Z,8.67
2018-04-25T18:46:10.644Z,6.73
2018-04-25T18:48:37.616Z,8.60
2018-04-25T18:51:04.845Z,7.33
2018-04-25T18:53:31.861Z,7.83
2018-04-25T18:55:58.129Z,7.77
2018-04-25T18:58:25.241Z,7.40
2018-04-25T19:00:51.596Z,6.33
2018-04-25T19:03:17.918Z,6.77
2018-04-25T19:05:45.051Z,8.63
2018-04-25T19:08:11.316Z,10.33
2018-04-25T19:10:38.306Z,8.33
2018-04-25T19:13:04.569Z,6.73
2018-04-25T19:15:31.544Z,6.60
2018-04-25T19:17:57.891Z,10.23
2018-04-25T19:20:24.226Z,7.70
2018-04-25T19:22:51.259Z,7.47
2018-04-25T19:25:17.763Z,6.10
2018-04-25T19:27:44.873Z,8.27
2018-04-25T19:30:11.135Z,7.13
2018-04-25T19:32:38.211Z,6.20
2018-04-25T19:35:04.484Z,8.83
2018-04-25T19:37:30.840Z,8.40
2018-04-25T19:39:57.853Z,7.00
2018-04-25T19:42:24.213Z,7.67
2018-04-25T19:44:51.243Z,7.63
2018-04-25T19:47:17.472Z,8.53
2018-04-25T19:49:44.482Z,7.27
2018-04-25T19:52:10.758Z,8.73
2018-04-25T19:54:37.087Z,7.00
2018-04-25T19:57:03.394Z,9.80
2018-04-25T19:59:29.678Z,6.07
2018-04-25T20:01:56.082Z,8.07
2018-04-25T20:04:22.446Z,7.23
2018-04-25T20:06:48.812Z,7.20
2018-04-25T20:09:15.100Z,6.27
2018-04-25T20:11:41.363Z,8.53
2018-04-25T20:14:07.646Z,6.80
2018-04-25T20:16:38.218Z,9.83
2018-04-25T20:19:05.103Z,4.73
2018-04-25T20:21:31.867Z,9.43
2018-04-25T20:23:59.240Z,5.87
2018-04-25T20:26:26.404Z,7.67
2018-04-25T20:28:52.647Z,9.53
2018-04-25T20:31:19.394Z,6.40
2018-04-25T20:33:45.655Z,6.90
2018-04-25T20:36:12.705Z,6.33
2018-04-25T20:38:39.360Z,7.97
2018-04-25T20:41:05.922Z,6.10
2018-04-25T20:43:32.353Z,7.67
2018-04-25T20:45:59.168Z,8.30
2018-04-25T20:48:25.548Z,10.33
2018-04-25T20:50:52.929Z,9.43
2018-04-25T20:53:19.414Z,7.13
2018-04-25T20:55:45.692Z,9.10
2018-04-25T20:58:12.204Z,9.40
2018-04-25T21:00:39.041Z,7.77
2018-04-25T21:03:06.205Z,9.63
2018-04-25T21:05:33.214Z,11.00
2018-04-25T21:07:59.622Z,8.77
2018-04-25T21:10:25.865Z,20.90
2018-04-25T21:12:52.137Z,8.50
2018-04-25T21:15:18.480Z,8.87
2018-04-25T21:17:44.885Z,10.37
2018-04-25T21:20:11.188Z,11.33
2018-04-25T21:22:37.528Z,8.03
2018-04-25T21:25:04.986Z,8.40
2018-04-25T21:27:31.244Z,7.60
2018-04-25T21:29:59.177Z,9.93
2018-04-25T21:32:25.564Z,8.80
2018-04-25T21:34:51.969Z,8.87
2018-04-25T21:37:18.319Z,8.37
2018-04-25T21:39:44.831Z,8.33
2018-04-25T21:42:11.336Z,7.73
2018-04-25T21:44:38.464Z,8.30
2018-04-25T21:47:04.712Z,8.97
2018-04-25T21:49:30.936Z,9.67
2018-04-25T21:51:57.189Z,7.90
2018-04-25T21:54:23.498Z,7.43
2018-04-25T21:56:49.887Z,10.30
2018-04-25T21:59:16.257Z,10.50
2018-04-25T22:01:42.763Z,9.93
2018-04-25T22:04:09.390Z,8.77
2018-04-25T22:06:36.884Z,9.50
2018-04-25T22:09:03.836Z,8.63
2018-04-25T22:11:30.579Z,6.70
2018-04-25T22:14:00.437Z,8.73
2018-04-25T22:16:37.029Z,5.97
2018-04-25T22:19:07.174Z,7.27
2018-04-25T22:21:35.565Z,6.87
2018-04-25T22:24:02.429Z,14.33
2018-04-25T22:26:35.315Z,9.47
2018-04-25T22:29:05.948Z,8.43
2018-04-25T22:31:35.107Z,10.33
2018-04-25T22:34:01.338Z,10.77
2018-04-25T22:36:27.647Z,10.87
2018-04-25T22:38:54.000Z,7.60
2018-04-25T22:41:20.331Z,9.03
2018-04-25T22:43:47.376Z,9.53
2018-04-25T22:46:13.623Z,9.13
2018-04-25T22:48:39.893Z,10.63
2018-04-25T22:51:06.896Z,11.13
2018-04-25T22:53:33.161Z,8.53
2018-04-25T22:56:00.096Z,8.97
2018-04-25T22:58:27.275Z,8.13
2018-04-25T23:00:54.301Z,7.57
2018-04-25T23:03:21.120Z,10.60
2018-04-25T23:05:47.288Z,9.87
2018-04-25T23:08:13.552Z,11.37
2018-04-25T23:10:39.761Z,9.03
2018-04-25T23:13:08.463Z,8.53
2018-04-25T23:15:41.181Z,10.30
2018-04-25T23:18:17.110Z,8.90
2018-04-25T23:20:47.101Z,11.27
2018-04-25T23:23:16.603Z,11.70
2018-04-25T23:28:19.668Z,9.53
2018-04-25T23:30:49.053Z,12.80
2018-04-25T23:33:17.441Z,11.97
2018-04-25T23:35:47.078Z,11.50
2018-04-25T23:38:17.849Z,9.13
2018-04-25T23:40:49.526Z,9.93
2018-04-25T23:43:17.812Z,9.93
2018-04-25T23:45:44.499Z,12.60
2018-04-25T23:48:19.256Z,10.80
2018-04-25T23:50:51.477Z,8.77
2018-04-25T23:53:23.427Z,9.87
2018-04-25T23:55:56.830Z,9.60
2018-04-25T23:58:26.340Z,8.90
